sensor_id;sensor_type;location;lat;lon;timestamp;temperature;humidity
43338;DHT22;28933;52.492;13.434;2023-02-04T00:00:05;5.40;99.90
43338;DHT22;28933;52.492;13.434;2023-02-04T00:02:52;5.50;99.90
43338;DHT22;28933;52.492;13.434;2023-02-04T00:05:38;5.50;99.90
43338;DHT22;28933;52.492;13.434;2023-02-04T00:08:24;5.40;99.90
43338;DHT22;28933;52.492;13.434;2023-02-04T00:11:09;5.40;99.90
43338;DHT22;28933;52.492;13.434;2023-02-04T00:13:55;5.40;99.90
43338;DHT22;28933;52.492;13.434;2023-02-04T00:16:41;5.30;99.90
43338;DHT22;28933;52.492;13.434;2023-02-04T00:19:27;5.20;99.90
43338;DHT22;28933;52.492;13.434;2023-02-04T00:22:13;5.10;99.90
43338;DHT22;28933;52.492;13.434;2023-02-04T00:24:59;5.10;99.90
43338;DHT22;28933;52.492;13.434;2023-02-04T00:27:45;5.00;99.90
43338;DHT22;28933;52.492;13.434;2023-02-04T00:30:32;5.00;99.90
43338;DHT22;28933;52.492;13.434;2023-02-04T00:33:18;4.90;99.90
43338;DHT22;28933;52.492;13.434;2023-02-04T00:36:04;4.90;99.90
43338;DHT22;28933;52.492;13.434;2023-02-04T00:38:50;4.80;99.90
43338;DHT22;28933;52.492;13.434;2023-02-04T00:41:36;4.90;99.90
43338;DHT22;28933;52.492;13.434;2023-02-04T00:44:22;4.80;99.90
43338;DHT22;28933;52.492;13.434;2023-02-04T00:47:08;4.70;99.90
43338;DHT22;28933;52.492;13.434;2023-02-04T00:49:54;4.50;99.90
43338;DHT22;28933;52.492;13.434;2023-02-04T00:52:40;4.40;99.90
43338;DHT22;28933;52.492;13.434;2023-02-04T00:55:26;4.30;99.90
43338;DHT22;28933;52.492;13.434;2023-02-04T00:58:13;4.20;99.90
43338;DHT22;28933;52.492;13.434;2023-02-04T01:00:59;4.10;99.90
43338;DHT22;28933;52.492;13.434;2023-02-04T01:03:44;4.00;99.90
43338;DHT22;28933;52.492;13.434;2023-02-04T01:06:30;4.00;99.90
43338;DHT22;28933;52.492;13.434;2023-02-04T01:09:16;4.00;99.90
43338;DHT22;28933;52.492;13.434;2023-02-04T01:12:03;3.90;99.90
43338;DHT22;28933;52.492;13.434;2023-02-04T01:14:49;3.90;99.90
43338;DHT22;28933;52.492;13.434;2023-02-04T01:17:34;3.90;99.90
43338;DHT22;28933;52.492;13.434;2023-02-04T01:20:20;3.90;99.90
43338;DHT22;28933;52.492;13.434;2023-02-04T01:23:06;3.80;99.90
43338;DHT22;28933;52.492;13.434;2023-02-04T01:25:52;3.90;99.90
43338;DHT22;28933;52.492;13.434;2023-02-04T01:28:38;3.80;99.90
43338;DHT22;28933;52.492;13.434;2023-02-04T01:31:24;3.80;99.90
43338;DHT22;28933;52.492;13.434;2023-02-04T01:34:10;3.80;99.90
43338;DHT22;28933;52.492;13.434;2023-02-04T01:36:56;3.80;99.90
43338;DHT22;28933;52.492;13.434;2023-02-04T01:39:42;3.90;99.90
43338;DHT22;28933;52.492;13.434;2023-02-04T01:42:28;3.90;99.90
43338;DHT22;28933;52.492;13.434;2023-02-04T01:45:14;3.80;99.90
43338;DHT22;28933;52.492;13.434;2023-02-04T01:48:04;3.80;99.90
43338;DHT22;28933;52.492;13.434;2023-02-04T01:51:02;3.80;99.90
43338;DHT22;28933;52.492;13.434;2023-02-04T01:53:49;3.80;99.90
43338;DHT22;28933;52.492;13.434;2023-02-04T01:56:35;3.70;99.90
43338;DHT22;28933;52.492;13.434;2023-02-04T01:59:21;3.80;99.90
43338;DHT22;28933;52.492;13.434;2023-02-04T02:02:40;3.70;99.90
43338;DHT22;28933;52.492;13.434;2023-02-04T02:05:36;3.80;99.90
43338;DHT22;28933;52.492;13.434;2023-02-04T02:08:23;3.80;99.90
43338;DHT22;28933;52.492;13.434;2023-02-04T02:11:09;3.80;99.90
43338;DHT22;28933;52.492;13.434;2023-02-04T02:13:55;3.80;99.90
43338;DHT22;28933;52.492;13.434;2023-02-04T02:16:41;3.80;99.90
43338;DHT22;28933;52.492;13.434;2023-02-04T02:19:31;3.80;99.90
43338;DHT22;28933;52.492;13.434;2023-02-04T02:22:29;3.90;99.90
43338;DHT22;28933;52.492;13.434;2023-02-04T02:25:15;3.90;99.90
43338;DHT22;28933;52.492;13.434;2023-02-04T02:28:02;3.90;99.90
43338;DHT22;28933;52.492;13.434;2023-02-04T02:30:50;4.00;99.90
43338;DHT22;28933;52.492;13.434;2023-02-04T02:33:36;4.00;99.90
43338;DHT22;28933;52.492;13.434;2023-02-04T02:36:22;4.10;99.90
43338;DHT22;28933;52.492;13.434;2023-02-04T02:39:08;4.10;99.90
43338;DHT22;28933;52.492;13.434;2023-02-04T02:41:55;4.10;99.90
43338;DHT22;28933;52.492;13.434;2023-02-04T02:44:43;4.10;99.90
43338;DHT22;28933;52.492;13.434;2023-02-04T02:47:30;4.10;99.90
43338;DHT22;28933;52.492;13.434;2023-02-04T02:50:18;4.10;99.90
43338;DHT22;28933;52.492;13.434;2023-02-04T02:53:14;4.10;99.90
43338;DHT22;28933;52.492;13.434;2023-02-04T02:56:00;4.00;99.90
43338;DHT22;28933;52.492;13.434;2023-02-04T02:58:49;4.00;99.90
43338;DHT22;28933;52.492;13.434;2023-02-04T03:01:35;4.00;99.90
43338;DHT22;28933;52.492;13.434;2023-02-04T03:04:21;4.00;99.90
43338;DHT22;28933;52.492;13.434;2023-02-04T03:07:08;4.00;99.90
43338;DHT22;28933;52.492;13.434;2023-02-04T03:09:55;3.90;99.90
43338;DHT22;28933;52.492;13.434;2023-02-04T03:12:41;3.90;99.90
43338;DHT22;28933;52.492;13.434;2023-02-04T03:15:27;3.90;99.90
43338;DHT22;28933;52.492;13.434;2023-02-04T03:18:15;3.90;99.90
43338;DHT22;28933;52.492;13.434;2023-02-04T03:21:03;3.90;99.90
43338;DHT22;28933;52.492;13.434;2023-02-04T03:23:50;3.90;99.90
43338;DHT22;28933;52.492;13.434;2023-02-04T03:26:36;3.80;99.90
43338;DHT22;28933;52.492;13.434;2023-02-04T03:29:22;3.80;99.90
43338;DHT22;28933;52.492;13.434;2023-02-04T03:32:08;3.80;99.90
43338;DHT22;28933;52.492;13.434;2023-02-04T03:34:54;3.80;99.90
43338;DHT22;28933;52.492;13.434;2023-02-04T03:37:40;3.70;99.90
43338;DHT22;28933;52.492;13.434;2023-02-04T03:40:26;3.70;99.90
43338;DHT22;28933;52.492;13.434;2023-02-04T03:43:14;3.70;99.90
43338;DHT22;28933;52.492;13.434;2023-02-04T03:46:00;3.70;99.90
43338;DHT22;28933;52.492;13.434;2023-02-04T03:48:46;3.70;99.90
43338;DHT22;28933;52.492;13.434;2023-02-04T03:51:32;3.70;99.90
43338;DHT22;28933;52.492;13.434;2023-02-04T03:54:18;3.70;99.90
43338;DHT22;28933;52.492;13.434;2023-02-04T03:57:04;3.70;99.90
43338;DHT22;28933;52.492;13.434;2023-02-04T03:59:49;3.70;99.90
43338;DHT22;28933;52.492;13.434;2023-02-04T04:02:35;3.70;99.90
43338;DHT22;28933;52.492;13.434;2023-02-04T04:05:21;3.70;99.90
43338;DHT22;28933;52.492;13.434;2023-02-04T04:08:07;3.70;99.90
43338;DHT22;28933;52.492;13.434;2023-02-04T04:10:53;3.70;99.90
43338;DHT22;28933;52.492;13.434;2023-02-04T04:13:39;3.70;99.90
43338;DHT22;28933;52.492;13.434;2023-02-04T04:16:25;3.70;99.90
43338;DHT22;28933;52.492;13.434;2023-02-04T04:19:11;3.70;99.90
43338;DHT22;28933;52.492;13.434;2023-02-04T04:21:57;3.70;99.90
43338;DHT22;28933;52.492;13.434;2023-02-04T04:24:43;3.80;99.90
43338;DHT22;28933;52.492;13.434;2023-02-04T04:27:30;3.80;99.90
43338;DHT22;28933;52.492;13.434;2023-02-04T04:30:16;3.80;99.90
43338;DHT22;28933;52.492;13.434;2023-02-04T04:33:02;3.90;99.90
43338;DHT22;28933;52.492;13.434;2023-02-04T04:35:48;3.80;99.90
43338;DHT22;28933;52.492;13.434;2023-02-04T04:38:34;3.90;99.90
43338;DHT22;28933;52.492;13.434;2023-02-04T04:41:20;3.80;99.90
43338;DHT22;28933;52.492;13.434;2023-02-04T04:44:06;3.80;99.90
43338;DHT22;28933;52.492;13.434;2023-02-04T04:46:52;3.80;99.90
43338;DHT22;28933;52.492;13.434;2023-02-04T04:49:37;3.80;99.90
43338;DHT22;28933;52.492;13.434;2023-02-04T04:52:23;3.80;99.90
43338;DHT22;28933;52.492;13.434;2023-02-04T04:55:10;3.80;99.90
43338;DHT22;28933;52.492;13.434;2023-02-04T04:57:55;3.80;99.90
43338;DHT22;28933;52.492;13.434;2023-02-04T05:00:41;3.80;99.90
43338;DHT22;28933;52.492;13.434;2023-02-04T05:03:27;3.80;99.90
43338;DHT22;28933;52.492;13.434;2023-02-04T05:06:13;3.80;99.90
43338;DHT22;28933;52.492;13.434;2023-02-04T05:08:59;3.80;99.90
43338;DHT22;28933;52.492;13.434;2023-02-04T05:11:45;3.80;99.90
43338;DHT22;28933;52.492;13.434;2023-02-04T05:14:32;3.80;99.90
43338;DHT22;28933;52.492;13.434;2023-02-04T05:17:18;3.70;99.90
43338;DHT22;28933;52.492;13.434;2023-02-04T05:20:04;3.70;99.90
43338;DHT22;28933;52.492;13.434;2023-02-04T05:22:51;3.70;99.90
43338;DHT22;28933;52.492;13.434;2023-02-04T05:25:37;3.60;99.90
43338;DHT22;28933;52.492;13.434;2023-02-04T05:28:23;3.60;99.90
43338;DHT22;28933;52.492;13.434;2023-02-04T05:31:09;3.60;99.90
43338;DHT22;28933;52.492;13.434;2023-02-04T05:33:55;3.60;99.90
43338;DHT22;28933;52.492;13.434;2023-02-04T05:36:41;3.60;99.90
43338;DHT22;28933;52.492;13.434;2023-02-04T05:39:27;3.60;99.90
43338;DHT22;28933;52.492;13.434;2023-02-04T05:42:13;3.60;99.90
43338;DHT22;28933;52.492;13.434;2023-02-04T05:44:59;3.60;99.90
43338;DHT22;28933;52.492;13.434;2023-02-04T05:47:45;3.50;99.90
43338;DHT22;28933;52.492;13.434;2023-02-04T05:50:31;3.60;99.90
43338;DHT22;28933;52.492;13.434;2023-02-04T05:53:17;3.50;99.90
43338;DHT22;28933;52.492;13.434;2023-02-04T05:56:03;3.50;99.90
43338;DHT22;28933;52.492;13.434;2023-02-04T05:58:49;3.40;99.90
43338;DHT22;28933;52.492;13.434;2023-02-04T06:01:35;3.40;99.90
43338;DHT22;28933;52.492;13.434;2023-02-04T06:04:21;3.40;99.90
43338;DHT22;28933;52.492;13.434;2023-02-04T06:07:07;3.40;99.90
43338;DHT22;28933;52.492;13.434;2023-02-04T06:09:53;3.40;99.90
43338;DHT22;28933;52.492;13.434;2023-02-04T06:12:38;3.40;99.90
43338;DHT22;28933;52.492;13.434;2023-02-04T06:15:24;3.30;99.90
43338;DHT22;28933;52.492;13.434;2023-02-04T06:18:10;3.40;99.90
43338;DHT22;28933;52.492;13.434;2023-02-04T06:20:56;3.30;99.90
43338;DHT22;28933;52.492;13.434;2023-02-04T06:23:42;3.30;99.90
43338;DHT22;28933;52.492;13.434;2023-02-04T06:26:28;3.30;99.90
43338;DHT22;28933;52.492;13.434;2023-02-04T06:29:14;3.30;99.90
43338;DHT22;28933;52.492;13.434;2023-02-04T06:32:00;3.30;99.90
43338;DHT22;28933;52.492;13.434;2023-02-04T06:34:46;3.30;99.90
43338;DHT22;28933;52.492;13.434;2023-02-04T06:37:32;3.30;99.90
43338;DHT22;28933;52.492;13.434;2023-02-04T06:40:18;3.30;99.90
43338;DHT22;28933;52.492;13.434;2023-02-04T06:43:04;3.30;99.90
43338;DHT22;28933;52.492;13.434;2023-02-04T06:45:50;3.40;99.90
43338;DHT22;28933;52.492;13.434;2023-02-04T06:48:36;3.30;99.90
43338;DHT22;28933;52.492;13.434;2023-02-04T06:51:22;3.30;99.90
43338;DHT22;28933;52.492;13.434;2023-02-04T06:54:08;3.30;99.90
43338;DHT22;28933;52.492;13.434;2023-02-04T06:56:54;3.30;99.90
43338;DHT22;28933;52.492;13.434;2023-02-04T06:59:40;3.20;99.90
43338;DHT22;28933;52.492;13.434;2023-02-04T07:02:28;3.30;99.90
43338;DHT22;28933;52.492;13.434;2023-02-04T07:05:14;3.20;99.90
43338;DHT22;28933;52.492;13.434;2023-02-04T07:08:00;3.20;99.90
43338;DHT22;28933;52.492;13.434;2023-02-04T07:10:46;3.20;99.90
43338;DHT22;28933;52.492;13.434;2023-02-04T07:13:32;3.20;99.90
43338;DHT22;28933;52.492;13.434;2023-02-04T07:16:18;3.20;99.90
43338;DHT22;28933;52.492;13.434;2023-02-04T07:19:04;3.20;99.90
43338;DHT22;28933;52.492;13.434;2023-02-04T07:21:50;3.20;99.90
43338;DHT22;28933;52.492;13.434;2023-02-04T07:24:39;3.20;99.90
43338;DHT22;28933;52.492;13.434;2023-02-04T07:27:25;3.10;99.90
43338;DHT22;28933;52.492;13.434;2023-02-04T07:30:11;3.20;99.90
43338;DHT22;28933;52.492;13.434;2023-02-04T07:32:57;3.20;99.90
43338;DHT22;28933;52.492;13.434;2023-02-04T07:35:43;3.20;99.90
43338;DHT22;28933;52.492;13.434;2023-02-04T07:38:29;3.20;99.90
43338;DHT22;28933;52.492;13.434;2023-02-04T07:41:15;3.20;99.90
43338;DHT22;28933;52.492;13.434;2023-02-04T07:44:02;3.30;99.90
43338;DHT22;28933;52.492;13.434;2023-02-04T07:46:48;3.30;99.90
43338;DHT22;28933;52.492;13.434;2023-02-04T07:49:34;3.30;99.90
43338;DHT22;28933;52.492;13.434;2023-02-04T07:52:20;3.30;99.90
43338;DHT22;28933;52.492;13.434;2023-02-04T07:55:06;3.30;99.90
43338;DHT22;28933;52.492;13.434;2023-02-04T07:57:33;3.30;99.90
43338;DHT22;28933;52.492;13.434;2023-02-04T07:59:58;3.30;99.90
43338;DHT22;28933;52.492;13.434;2023-02-04T08:02:24;3.30;99.90
43338;DHT22;28933;52.492;13.434;2023-02-04T08:04:50;3.40;99.90
43338;DHT22;28933;52.492;13.434;2023-02-04T08:07:16;3.40;99.90
43338;DHT22;28933;52.492;13.434;2023-02-04T08:09:41;3.40;99.90
43338;DHT22;28933;52.492;13.434;2023-02-04T08:12:07;3.50;99.90
43338;DHT22;28933;52.492;13.434;2023-02-04T08:14:32;3.50;99.90
43338;DHT22;28933;52.492;13.434;2023-02-04T08:16:58;3.50;99.90
43338;DHT22;28933;52.492;13.434;2023-02-04T08:19:24;3.60;99.90
43338;DHT22;28933;52.492;13.434;2023-02-04T08:22:08;3.60;99.90
43338;DHT22;28933;52.492;13.434;2023-02-04T08:24:56;3.60;99.90
43338;DHT22;28933;52.492;13.434;2023-02-04T08:27:42;3.60;99.90
43338;DHT22;28933;52.492;13.434;2023-02-04T08:30:28;3.70;99.90
43338;DHT22;28933;52.492;13.434;2023-02-04T08:33:13;3.70;99.90
43338;DHT22;28933;52.492;13.434;2023-02-04T08:35:59;3.70;99.90
43338;DHT22;28933;52.492;13.434;2023-02-04T08:38:45;3.70;99.90
43338;DHT22;28933;52.492;13.434;2023-02-04T08:41:31;3.70;99.90
43338;DHT22;28933;52.492;13.434;2023-02-04T08:44:18;3.70;99.90
43338;DHT22;28933;52.492;13.434;2023-02-04T08:47:04;3.80;99.90
43338;DHT22;28933;52.492;13.434;2023-02-04T08:49:50;3.80;99.90
43338;DHT22;28933;52.492;13.434;2023-02-04T08:52:36;3.90;99.90
43338;DHT22;28933;52.492;13.434;2023-02-04T08:55:22;3.90;99.90
43338;DHT22;28933;52.492;13.434;2023-02-04T08:58:07;3.90;99.90
43338;DHT22;28933;52.492;13.434;2023-02-04T09:00:53;3.90;99.90
43338;DHT22;28933;52.492;13.434;2023-02-04T09:03:39;3.90;99.90
43338;DHT22;28933;52.492;13.434;2023-02-04T09:06:25;3.90;99.90
43338;DHT22;28933;52.492;13.434;2023-02-04T09:09:12;3.90;99.90
43338;DHT22;28933;52.492;13.434;2023-02-04T09:11:58;4.00;99.90
43338;DHT22;28933;52.492;13.434;2023-02-04T09:14:44;4.00;99.90
43338;DHT22;28933;52.492;13.434;2023-02-04T09:17:30;4.00;99.90
43338;DHT22;28933;52.492;13.434;2023-02-04T09:20:16;4.00;99.90
43338;DHT22;28933;52.492;13.434;2023-02-04T09:23:02;4.00;99.90
43338;DHT22;28933;52.492;13.434;2023-02-04T09:25:48;4.10;99.90
43338;DHT22;28933;52.492;13.434;2023-02-04T09:28:34;4.10;99.90
43338;DHT22;28933;52.492;13.434;2023-02-04T09:31:20;4.10;99.90
43338;DHT22;28933;52.492;13.434;2023-02-04T09:34:06;4.20;99.90
43338;DHT22;28933;52.492;13.434;2023-02-04T09:36:52;4.30;99.90
43338;DHT22;28933;52.492;13.434;2023-02-04T09:39:38;4.30;99.90
43338;DHT22;28933;52.492;13.434;2023-02-04T09:42:25;4.30;99.90
43338;DHT22;28933;52.492;13.434;2023-02-04T09:45:32;4.30;99.90
43338;DHT22;28933;52.492;13.434;2023-02-04T09:48:21;4.40;99.90
43338;DHT22;28933;52.492;13.434;2023-02-04T09:51:07;4.40;99.90
43338;DHT22;28933;52.492;13.434;2023-02-04T09:53:59;4.40;99.90
43338;DHT22;28933;52.492;13.434;2023-02-04T09:56:47;4.50;99.90
43338;DHT22;28933;52.492;13.434;2023-02-04T09:59:34;4.50;99.90
43338;DHT22;28933;52.492;13.434;2023-02-04T10:02:25;4.60;99.90
43338;DHT22;28933;52.492;13.434;2023-02-04T10:05:31;4.70;99.90
43338;DHT22;28933;52.492;13.434;2023-02-04T10:08:19;4.70;99.90
43338;DHT22;28933;52.492;13.434;2023-02-04T10:11:06;4.80;99.90
43338;DHT22;28933;52.492;13.434;2023-02-04T10:13:54;4.90;99.90
43338;DHT22;28933;52.492;13.434;2023-02-04T10:16:41;5.00;99.90
43338;DHT22;28933;52.492;13.434;2023-02-04T10:19:29;5.00;99.90
43338;DHT22;28933;52.492;13.434;2023-02-04T10:22:20;5.10;99.90
43338;DHT22;28933;52.492;13.434;2023-02-04T10:25:15;5.10;99.90
43338;DHT22;28933;52.492;13.434;2023-02-04T10:28:04;5.20;99.90
43338;DHT22;28933;52.492;13.434;2023-02-04T10:30:50;5.20;99.90
43338;DHT22;28933;52.492;13.434;2023-02-04T10:33:36;5.20;99.90
43338;DHT22;28933;52.492;13.434;2023-02-04T10:36:23;5.30;99.40
43338;DHT22;28933;52.492;13.434;2023-02-04T10:39:22;5.30;99.40
43338;DHT22;28933;52.492;13.434;2023-02-04T10:42:28;5.30;99.00
43338;DHT22;28933;52.492;13.434;2023-02-04T10:45:44;5.30;99.00
43338;DHT22;28933;52.492;13.434;2023-02-04T10:48:39;5.20;98.10
43338;DHT22;28933;52.492;13.434;2023-02-04T10:51:26;5.30;98.70
43338;DHT22;28933;52.492;13.434;2023-02-04T10:54:13;5.30;98.60
43338;DHT22;28933;52.492;13.434;2023-02-04T10:57:29;5.30;98.70
43338;DHT22;28933;52.492;13.434;2023-02-04T11:00:21;5.40;98.60
43338;DHT22;28933;52.492;13.434;2023-02-04T11:03:18;5.50;98.50
43338;DHT22;28933;52.492;13.434;2023-02-04T11:06:11;5.50;98.30
43338;DHT22;28933;52.492;13.434;2023-02-04T11:08:58;5.60;98.30
43338;DHT22;28933;52.492;13.434;2023-02-04T11:11:46;5.70;97.70
43338;DHT22;28933;52.492;13.434;2023-02-04T11:14:32;5.80;97.80
43338;DHT22;28933;52.492;13.434;2023-02-04T11:17:19;5.90;97.90
43338;DHT22;28933;52.492;13.434;2023-02-04T11:20:28;5.80;97.20
43338;DHT22;28933;52.492;13.434;2023-02-04T11:26:30;5.70;97.00
43338;DHT22;28933;52.492;13.434;2023-02-04T11:29:33;5.60;96.20
43338;DHT22;28933;52.492;13.434;2023-02-04T11:32:35;5.50;96.60
43338;DHT22;28933;52.492;13.434;2023-02-04T11:35:25;5.50;96.60
43338;DHT22;28933;52.492;13.434;2023-02-04T11:38:24;5.40;96.50
43338;DHT22;28933;52.492;13.434;2023-02-04T11:41:23;5.40;96.60
43338;DHT22;28933;52.492;13.434;2023-02-04T11:44:09;5.40;96.50
43338;DHT22;28933;52.492;13.434;2023-02-04T11:46:57;5.40;96.40
43338;DHT22;28933;52.492;13.434;2023-02-04T11:49:47;5.40;96.30
43338;DHT22;28933;52.492;13.434;2023-02-04T11:52:37;5.40;96.40
43338;DHT22;28933;52.492;13.434;2023-02-04T11:55:23;5.40;96.60
43338;DHT22;28933;52.492;13.434;2023-02-04T11:58:17;5.40;96.60
43338;DHT22;28933;52.492;13.434;2023-02-04T12:01:03;5.40;96.40
43338;DHT22;28933;52.492;13.434;2023-02-04T12:03:56;5.40;96.40
43338;DHT22;28933;52.492;13.434;2023-02-04T12:06:42;5.50;96.60
43338;DHT22;28933;52.492;13.434;2023-02-04T12:09:30;5.60;96.60
43338;DHT22;28933;52.492;13.434;2023-02-04T12:12:27;5.50;96.20
43338;DHT22;28933;52.492;13.434;2023-02-04T12:15:17;5.70;96.30
43338;DHT22;28933;52.492;13.434;2023-02-04T12:18:09;5.70;96.40
43338;DHT22;28933;52.492;13.434;2023-02-04T12:21:01;5.80;95.90
43338;DHT22;28933;52.492;13.434;2023-02-04T12:23:47;5.80;96.20
43338;DHT22;28933;52.492;13.434;2023-02-04T12:26:33;5.90;95.80
43338;DHT22;28933;52.492;13.434;2023-02-04T12:29:19;5.90;95.70
43338;DHT22;28933;52.492;13.434;2023-02-04T12:32:05;6.00;95.30
43338;DHT22;28933;52.492;13.434;2023-02-04T12:34:51;6.00;94.60
43338;DHT22;28933;52.492;13.434;2023-02-04T12:37:36;6.00;95.10
43338;DHT22;28933;52.492;13.434;2023-02-04T12:40:22;6.10;95.10
43338;DHT22;28933;52.492;13.434;2023-02-04T12:43:08;6.10;95.10
43338;DHT22;28933;52.492;13.434;2023-02-04T12:45:54;6.10;94.80
43338;DHT22;28933;52.492;13.434;2023-02-04T12:48:40;6.10;94.80
43338;DHT22;28933;52.492;13.434;2023-02-04T12:51:26;5.90;94.20
43338;DHT22;28933;52.492;13.434;2023-02-04T12:54:12;5.90;94.60
43338;DHT22;28933;52.492;13.434;2023-02-04T12:56:58;5.90;94.60
43338;DHT22;28933;52.492;13.434;2023-02-04T12:59:47;5.90;94.60
43338;DHT22;28933;52.492;13.434;2023-02-04T13:02:33;5.90;94.70
43338;DHT22;28933;52.492;13.434;2023-02-04T13:05:20;6.00;94.90
43338;DHT22;28933;52.492;13.434;2023-02-04T13:08:06;6.00;94.40
43338;DHT22;28933;52.492;13.434;2023-02-04T13:10:51;6.10;94.60
43338;DHT22;28933;52.492;13.434;2023-02-04T13:13:38;6.10;93.80
43338;DHT22;28933;52.492;13.434;2023-02-04T13:16:24;6.10;94.00
43338;DHT22;28933;52.492;13.434;2023-02-04T13:19:10;6.10;94.10
43338;DHT22;28933;52.492;13.434;2023-02-04T13:21:57;6.10;93.80
43338;DHT22;28933;52.492;13.434;2023-02-04T13:24:43;6.10;94.00
43338;DHT22;28933;52.492;13.434;2023-02-04T13:27:29;6.10;93.60
43338;DHT22;28933;52.492;13.434;2023-02-04T13:30:16;6.00;93.10
43338;DHT22;28933;52.492;13.434;2023-02-04T13:33:02;6.00;93.40
43338;DHT22;28933;52.492;13.434;2023-02-04T13:35:48;5.90;93.30
43338;DHT22;28933;52.492;13.434;2023-02-04T13:38:34;5.90;93.20
43338;DHT22;28933;52.492;13.434;2023-02-04T13:41:20;5.90;93.00
43338;DHT22;28933;52.492;13.434;2023-02-04T13:44:06;5.90;93.20
43338;DHT22;28933;52.492;13.434;2023-02-04T13:46:52;5.80;93.00
43338;DHT22;28933;52.492;13.434;2023-02-04T13:49:38;5.70;93.00
43338;DHT22;28933;52.492;13.434;2023-02-04T13:52:24;5.60;92.50
43338;DHT22;28933;52.492;13.434;2023-02-04T13:55:10;5.60;93.00
43338;DHT22;28933;52.492;13.434;2023-02-04T13:57:56;5.60;92.80
43338;DHT22;28933;52.492;13.434;2023-02-04T14:00:42;5.60;92.80
43338;DHT22;28933;52.492;13.434;2023-02-04T14:03:29;5.60;93.00
43338;DHT22;28933;52.492;13.434;2023-02-04T14:06:15;5.70;93.00
43338;DHT22;28933;52.492;13.434;2023-02-04T14:09:05;5.70;92.70
43338;DHT22;28933;52.492;13.434;2023-02-04T14:11:51;5.80;92.90
43338;DHT22;28933;52.492;13.434;2023-02-04T14:14:37;5.90;92.20
43338;DHT22;28933;52.492;13.434;2023-02-04T14:17:23;6.00;92.70
43338;DHT22;28933;52.492;13.434;2023-02-04T14:20:09;6.00;92.10
43338;DHT22;28933;52.492;13.434;2023-02-04T14:22:55;6.10;92.30
43338;DHT22;28933;52.492;13.434;2023-02-04T14:25:41;6.10;91.90
43338;DHT22;28933;52.492;13.434;2023-02-04T14:28:27;6.10;91.90
43338;DHT22;28933;52.492;13.434;2023-02-04T14:31:13;6.00;90.90
43338;DHT22;28933;52.492;13.434;2023-02-04T14:33:59;6.00;91.30
43338;DHT22;28933;52.492;13.434;2023-02-04T14:36:45;5.90;90.80
43338;DHT22;28933;52.492;13.434;2023-02-04T14:39:31;5.80;91.00
43338;DHT22;28933;52.492;13.434;2023-02-04T14:42:17;5.80;91.10
43338;DHT22;28933;52.492;13.434;2023-02-04T14:45:07;5.70;90.80
43338;DHT22;28933;52.492;13.434;2023-02-04T14:47:53;5.70;91.10
43338;DHT22;28933;52.492;13.434;2023-02-04T14:50:41;5.60;91.00
43338;DHT22;28933;52.492;13.434;2023-02-04T14:53:27;5.60;91.10
43338;DHT22;28933;52.492;13.434;2023-02-04T14:56:13;5.50;91.20
43338;DHT22;28933;52.492;13.434;2023-02-04T14:58:59;5.50;91.30
43338;DHT22;28933;52.492;13.434;2023-02-04T15:01:45;5.50;90.80
43338;DHT22;28933;52.492;13.434;2023-02-04T15:04:31;5.40;91.30
43338;DHT22;28933;52.492;13.434;2023-02-04T15:07:17;5.40;91.20
43338;DHT22;28933;52.492;13.434;2023-02-04T15:10:03;5.30;91.20
43338;DHT22;28933;52.492;13.434;2023-02-04T15:12:50;5.30;91.20
43338;DHT22;28933;52.492;13.434;2023-02-04T15:15:36;5.30;91.10
43338;DHT22;28933;52.492;13.434;2023-02-04T15:18:22;5.30;91.20
43338;DHT22;28933;52.492;13.434;2023-02-04T15:21:08;5.20;91.30
43338;DHT22;28933;52.492;13.434;2023-02-04T15:23:54;5.20;91.20
43338;DHT22;28933;52.492;13.434;2023-02-04T15:26:40;5.20;91.10
43338;DHT22;28933;52.492;13.434;2023-02-04T15:29:26;5.20;91.30
43338;DHT22;28933;52.492;13.434;2023-02-04T15:32:12;5.10;91.20
43338;DHT22;28933;52.492;13.434;2023-02-04T15:34:58;5.10;90.90
43338;DHT22;28933;52.492;13.434;2023-02-04T15:37:44;5.00;90.80
43338;DHT22;28933;52.492;13.434;2023-02-04T15:40:30;5.00;90.90
43338;DHT22;28933;52.492;13.434;2023-02-04T15:43:16;5.10;90.90
43338;DHT22;28933;52.492;13.434;2023-02-04T15:46:02;5.00;90.90
43338;DHT22;28933;52.492;13.434;2023-02-04T15:48:48;5.00;90.30
43338;DHT22;28933;52.492;13.434;2023-02-04T15:51:34;4.90;90.90
43338;DHT22;28933;52.492;13.434;2023-02-04T15:54:20;4.90;90.20
43338;DHT22;28933;52.492;13.434;2023-02-04T15:57:05;4.80;90.40
43338;DHT22;28933;52.492;13.434;2023-02-04T15:59:51;4.70;90.40
43338;DHT22;28933;52.492;13.434;2023-02-04T16:02:37;4.70;90.60
43338;DHT22;28933;52.492;13.434;2023-02-04T16:05:23;4.60;90.50
43338;DHT22;28933;52.492;13.434;2023-02-04T16:08:09;4.60;90.50
43338;DHT22;28933;52.492;13.434;2023-02-04T16:10:55;4.60;90.70
43338;DHT22;28933;52.492;13.434;2023-02-04T16:13:41;4.50;90.80
43338;DHT22;28933;52.492;13.434;2023-02-04T16:16:27;4.50;91.10
43338;DHT22;28933;52.492;13.434;2023-02-04T16:19:13;4.50;90.80
43338;DHT22;28933;52.492;13.434;2023-02-04T16:21:59;4.40;90.90
43338;DHT22;28933;52.492;13.434;2023-02-04T16:24:45;4.40;91.00
43338;DHT22;28933;52.492;13.434;2023-02-04T16:27:31;4.40;90.70
43338;DHT22;28933;52.492;13.434;2023-02-04T16:30:18;4.30;90.80
43338;DHT22;28933;52.492;13.434;2023-02-04T16:33:04;4.30;90.80
43338;DHT22;28933;52.492;13.434;2023-02-04T16:36:00;4.20;90.60
43338;DHT22;28933;52.492;13.434;2023-02-04T16:38:47;4.10;90.40
43338;DHT22;28933;52.492;13.434;2023-02-04T16:41:32;4.10;90.30
43338;DHT22;28933;52.492;13.434;2023-02-04T16:44:18;4.00;90.30
43338;DHT22;28933;52.492;13.434;2023-02-04T16:47:05;3.90;90.30
43338;DHT22;28933;52.492;13.434;2023-02-04T16:49:51;3.80;90.50
43338;DHT22;28933;52.492;13.434;2023-02-04T16:52:38;3.80;90.50
43338;DHT22;28933;52.492;13.434;2023-02-04T16:55:24;3.80;90.70
43338;DHT22;28933;52.492;13.434;2023-02-04T16:58:13;3.70;90.70
43338;DHT22;28933;52.492;13.434;2023-02-04T17:00:59;3.70;90.60
43338;DHT22;28933;52.492;13.434;2023-02-04T17:03:45;3.60;90.80
43338;DHT22;28933;52.492;13.434;2023-02-04T17:06:31;3.60;90.80
43338;DHT22;28933;52.492;13.434;2023-02-04T17:09:18;3.50;90.90
43338;DHT22;28933;52.492;13.434;2023-02-04T17:12:04;3.50;91.00
43338;DHT22;28933;52.492;13.434;2023-02-04T17:14:50;3.50;91.10
43338;DHT22;28933;52.492;13.434;2023-02-04T17:17:36;3.50;91.10
43338;DHT22;28933;52.492;13.434;2023-02-04T17:20:22;3.40;91.40
43338;DHT22;28933;52.492;13.434;2023-02-04T17:23:09;3.40;91.20
43338;DHT22;28933;52.492;13.434;2023-02-04T17:25:55;3.30;91.00
43338;DHT22;28933;52.492;13.434;2023-02-04T17:28:41;3.30;91.20
43338;DHT22;28933;52.492;13.434;2023-02-04T17:31:27;3.30;91.20
43338;DHT22;28933;52.492;13.434;2023-02-04T17:34:13;3.20;91.20